Time;durP1;ratioP1;P1;durP2;ratioP2;P2;SDS_P1;SDS_P2;PMS_P1;PMS_P2;Temp;Humidity;BMP_temperature;BMP_pressure;BME280_temperature;BME280_humidity;BME280_pressure;Samples;Min_cycle;Max_cycle;Signal;HPM_P1;HPM_P2
2022/07/22 00:00:28;;;;;;;11.97;2.93;;;17.00;99.90;;;;;;5095406;28;20051;-67
2022/07/22 00:02:54;;;;;;;13.37;3.13;;;17.00;99.90;;;;;;5094969;28;20079;-67
2022/07/22 00:05:20;;;;;;;13.30;2.97;;;17.00;99.90;;;;;;5094230;28;20047;-67
2022/07/22 00:07:45;;;;;;;10.73;2.53;;;17.00;99.90;;;;;;5093991;28;20048;-67
2022/07/22 00:10:11;;;;;;;9.47;2.80;;;17.00;99.90;;;;;;5095165;28;20521;-67
2022/07/22 00:12:38;;;;;;;11.50;2.87;;;17.00;99.90;;;;;;5095136;28;20131;-67
2022/07/22 00:15:05;;;;;;;9.23;2.23;;;17.00;99.90;;;;;;5094964;28;20379;-67
2022/07/22 00:17:31;;;;;;;12.00;3.13;;;17.00;99.90;;;;;;5095086;28;20091;-67
2022/07/22 00:19:57;;;;;;;9.77;2.40;;;17.00;99.90;;;;;;5095029;28;20080;-67
2022/07/22 00:22:22;;;;;;;10.83;2.30;;;17.00;99.90;;;;;;5095004;28;20048;-67
2022/07/22 00:24:48;;;;;;;9.13;2.30;;;17.10;99.90;;;;;;5094997;28;20052;-67
2022/07/22 00:27:14;;;;;;;10.87;3.07;;;17.00;99.90;;;;;;5095464;28;20349;-67
2022/07/22 00:29:39;;;;;;;9.10;2.60;;;17.00;99.90;;;;;;5094721;28;20040;-67
2022/07/22 00:32:05;;;;;;;9.40;2.20;;;17.10;99.90;;;;;;5094803;28;20058;-67
2022/07/22 00:34:31;;;;;;;8.27;2.70;;;17.10;99.90;;;;;;5094413;28;20391;-67
2022/07/22 00:36:56;;;;;;;11.27;2.57;;;17.00;99.90;;;;;;5094939;28;20081;-67
2022/07/22 00:39:22;;;;;;;10.77;2.67;;;17.00;99.90;;;;;;5094686;28;20472;-67
2022/07/22 00:41:48;;;;;;;9.27;2.80;;;17.00;99.90;;;;;;5094865;28;20127;-67
2022/07/22 00:44:14;;;;;;;8.37;2.30;;;17.00;99.90;;;;;;5094374;28;20063;-67
2022/07/22 00:46:40;;;;;;;13.67;3.00;;;17.00;99.90;;;;;;5094272;28;20056;-67
2022/07/22 00:49:08;;;;;;;15.03;3.03;;;17.00;99.90;;;;;;5094393;28;20040;-67
2022/07/22 00:51:36;;;;;;;8.83;2.53;;;17.00;99.90;;;;;;5094960;28;20050;-67
2022/07/22 00:54:03;;;;;;;13.33;2.87;;;17.00;99.90;;;;;;5094387;28;20044;-67
2022/07/22 00:56:29;;;;;;;13.50;2.73;;;17.00;99.90;;;;;;5094944;28;20055;-67
2022/07/22 00:58:59;;;;;;;13.87;2.77;;;17.00;99.90;;;;;;5093154;28;20089;-67
2022/07/22 01:01:25;;;;;;;8.73;2.83;;;17.00;99.90;;;;;;5094293;28;20083;-67
2022/07/22 01:03:51;;;;;;;9.97;2.87;;;17.00;99.90;;;;;;5092980;28;20044;-67
2022/07/22 01:06:17;;;;;;;12.73;2.23;;;17.00;99.90;;;;;;5094246;28;20048;-67
2022/07/22 01:08:42;;;;;;;11.00;2.90;;;17.00;99.90;;;;;;5075978;28;20436;-67
2022/07/22 01:11:13;;;;;;;14.40;2.90;;;17.00;99.90;;;;;;5094111;28;20365;-67
2022/07/22 01:13:40;;;;;;;5.47;2.30;;;17.00;99.90;;;;;;5094659;28;20098;-69
2022/07/22 01:16:07;;;;;;;10.00;3.63;;;17.00;99.90;;;;;;5094065;28;20119;-67
2022/07/22 01:18:34;;;;;;;12.33;4.67;;;17.00;99.90;;;;;;5093976;28;20040;-67
2022/07/22 01:21:00;;;;;;;9.90;3.83;;;17.00;99.90;;;;;;5094488;28;20044;-67
2022/07/22 01:23:26;;;;;;;11.57;2.37;;;17.00;99.90;;;;;;5093268;28;20040;-67
2022/07/22 01:25:52;;;;;;;16.53;3.20;;;17.00;99.90;;;;;;5093943;28;20130;-67
2022/07/22 01:28:19;;;;;;;7.70;2.60;;;17.00;99.90;;;;;;5093768;28;20138;-67
2022/07/22 01:30:44;;;;;;;10.30;2.70;;;17.00;99.90;;;;;;5094251;28;20044;-67
2022/07/22 01:33:10;;;;;;;11.60;3.50;;;17.00;99.90;;;;;;5094397;28;20047;-67
2022/07/22 01:35:36;;;;;;;11.83;2.40;;;17.00;99.90;;;;;;5093716;28;20048;-67
2022/07/22 01:38:01;;;;;;;10.53;3.00;;;17.00;99.90;;;;;;5094213;28;20048;-67
2022/07/22 01:40:27;;;;;;;10.13;2.63;;;17.00;99.90;;;;;;5093500;28;20052;-67
2022/07/22 01:42:53;;;;;;;10.30;2.53;;;17.00;99.90;;;;;;5093658;28;20046;-67
2022/07/22 01:45:18;;;;;;;10.77;2.90;;;17.00;99.90;;;;;;5094040;28;20475;-67
2022/07/22 01:47:44;;;;;;;10.63;2.67;;;17.00;99.90;;;;;;5093581;28;20052;-67
2022/07/22 01:50:11;;;;;;;10.23;2.50;;;17.00;99.90;;;;;;5093518;28;20048;-67
2022/07/22 01:52:39;;;;;;;13.57;2.97;;;17.00;99.90;;;;;;5093325;28;20066;-67
2022/07/22 01:55:08;;;;;;;11.43;3.17;;;16.90;99.90;;;;;;5093725;28;20380;-67
2022/07/22 01:57:36;;;;;;;13.13;2.73;;;16.90;99.90;;;;;;5095165;28;20063;-67
2022/07/22 02:00:07;;;;;;;9.57;2.20;;;16.90;99.90;;;;;;5097597;28;20075;-67
2022/07/22 02:02:33;;;;;;;9.17;2.47;;;16.90;99.90;;;;;;5098185;28;20083;-67
2022/07/22 02:04:58;;;;;;;12.37;2.57;;;16.90;99.90;;;;;;5097913;28;20086;-67
2022/07/22 02:07:25;;;;;;;11.07;2.47;;;16.90;99.90;;;;;;5097470;28;20048;-67
2022/07/22 02:09:52;;;;;;;8.50;2.53;;;16.90;99.90;;;;;;5097639;28;20388;-67
2022/07/22 02:12:18;;;;;;;11.23;3.00;;;16.90;99.90;;;;;;5097488;28;20119;-67
2022/07/22 02:14:44;;;;;;;12.20;2.60;;;16.90;99.90;;;;;;5098203;28;20483;-67
2022/07/22 02:17:09;;;;;;;9.23;2.37;;;16.90;99.90;;;;;;5097814;28;20044;-67
2022/07/22 02:19:35;;;;;;;9.60;2.50;;;16.80;99.90;;;;;;5097311;28;20040;-67
2022/07/22 02:22:01;;;;;;;11.87;2.90;;;16.80;99.90;;;;;;5097855;28;20066;-67
2022/07/22 02:24:26;;;;;;;10.30;2.97;;;16.80;99.90;;;;;;5097260;28;20121;-67
2022/07/22 02:26:52;;;;;;;8.90;2.47;;;16.80;99.90;;;;;;5097177;28;20476;-68
2022/07/22 02:29:18;;;;;;;8.97;2.70;;;16.80;99.90;;;;;;5097294;28;20145;-67
2022/07/22 02:31:43;;;;;;;11.53;2.20;;;16.80;99.90;;;;;;5097629;28;20048;-67
2022/07/22 02:34:09;;;;;;;12.50;3.20;;;16.80;99.90;;;;;;5096980;28;20040;-67
2022/07/22 02:36:35;;;;;;;8.23;2.20;;;16.80;99.90;;;;;;5097457;28;20126;-68
2022/07/22 02:39:00;;;;;;;9.97;2.80;;;16.80;99.90;;;;;;5097139;28;20044;-67
2022/07/22 02:41:26;;;;;;;7.03;2.53;;;16.80;99.90;;;;;;5096817;28;20048;-67
2022/07/22 02:43:54;;;;;;;14.63;2.30;;;16.80;99.90;;;;;;5096573;28;20082;-68
2022/07/22 02:46:24;;;;;;;8.73;2.60;;;16.70;99.90;;;;;;5097290;28;20059;-67
2022/07/22 02:48:50;;;;;;;8.67;2.40;;;16.80;99.90;;;;;;5096145;28;20058;-68
2022/07/22 02:51:16;;;;;;;8.30;2.30;;;16.80;99.90;;;;;;5096648;28;20551;-68
2022/07/22 02:53:42;;;;;;;10.87;2.10;;;16.80;99.90;;;;;;5096653;28;20044;-68
2022/07/22 02:56:08;;;;;;;9.50;2.43;;;16.80;99.90;;;;;;5097085;28;20047;-67
2022/07/22 02:58:33;;;;;;;7.63;2.33;;;16.80;99.90;;;;;;5096575;28;20040;-67
2022/07/22 03:00:59;;;;;;;6.33;2.10;;;16.80;99.90;;;;;;5096430;28;20131;-68
2022/07/22 03:03:25;;;;;;;7.20;1.90;;;16.80;99.90;;;;;;5096445;28;20149;-67
2022/07/22 03:05:51;;;;;;;6.23;2.20;;;16.80;99.90;;;;;;5096298;28;20155;-68
2022/07/22 03:08:17;;;;;;;8.27;2.60;;;16.80;99.90;;;;;;5096347;28;20036;-67
2022/07/22 03:10:43;;;;;;;9.13;2.43;;;16.80;99.90;;;;;;5095975;28;20505;-67
2022/07/22 03:13:08;;;;;;;7.80;2.90;;;16.70;99.90;;;;;;5096465;28;20083;-67
2022/07/22 03:15:34;;;;;;;10.60;2.87;;;;;;;;;;5096171;28;20052;-67
2022/07/22 03:18:01;;;;;;;6.60;2.13;;;;;;;;;;5096390;28;20097;-68
2022/07/22 03:20:27;;;;;;;8.37;2.50;;;;;;;;;;5096117;28;20052;-67
2022/07/22 03:22:53;;;;;;;8.50;2.43;;;16.70;99.90;;;;;;5095082;28;20040;-69
2022/07/22 03:25:19;;;;;;;10.63;2.67;;;16.80;99.90;;;;;;5095117;28;20447;-67
2022/07/22 03:27:44;;;;;;;11.40;2.57;;;16.70;99.90;;;;;;5096725;28;20052;-67
2022/07/22 03:30:11;;;;;;;6.63;2.20;;;16.70;99.90;;;;;;5096093;28;20384;-67
2022/07/22 03:32:36;;;;;;;6.13;2.43;;;16.70;99.90;;;;;;5094574;28;20112;-67
2022/07/22 03:35:02;;;;;;;9.67;2.77;;;16.70;99.90;;;;;;5096252;28;20472;-68
2022/07/22 03:37:28;;;;;;;9.60;2.73;;;16.70;99.90;;;;;;5095906;28;20055;-68
2022/07/22 03:39:54;;;;;;;7.90;2.47;;;16.70;99.90;;;;;;5095325;28;20160;-68
2022/07/22 03:42:19;;;;;;;6.83;2.33;;;16.70;99.90;;;;;;5095936;28;20059;-67
2022/07/22 03:44:46;;;;;;;7.53;2.87;;;16.70;99.90;;;;;;5096378;28;20609;-67
2022/07/22 03:47:17;;;;;;;13.10;3.57;;;16.70;99.90;;;;;;5095527;28;20052;-68
2022/07/22 03:49:42;;;;;;;10.63;2.40;;;16.60;99.90;;;;;;5095750;28;20066;-67
2022/07/22 03:52:08;;;;;;;8.97;2.50;;;16.70;99.90;;;;;;5096263;28;20512;-67
2022/07/22 03:54:34;;;;;;;11.07;2.90;;;16.70;99.90;;;;;;5095434;28;20048;-67
2022/07/22 03:56:59;;;;;;;7.40;2.27;;;16.70;99.90;;;;;;5095403;28;20052;-68
2022/07/22 03:59:25;;;;;;;10.97;2.47;;;16.70;99.90;;;;;;5095639;28;20375;-67
2022/07/22 04:01:51;;;;;;;13.53;2.67;;;16.70;99.90;;;;;;5096025;28;20080;-67
2022/07/22 04:04:16;;;;;;;8.33;2.20;;;16.80;99.90;;;;;;5095278;28;20055;-67
2022/07/22 04:06:42;;;;;;;10.17;2.53;;;16.70;99.90;;;;;;5095755;28;20051;-67
2022/07/22 04:09:08;;;;;;;8.87;2.17;;;16.70;99.90;;;;;;5095066;28;20476;-68
2022/07/22 04:11:33;;;;;;;6.17;2.10;;;16.70;99.90;;;;;;5095110;28;20051;-67
2022/07/22 04:14:00;;;;;;;9.70;2.10;;;16.70;99.90;;;;;;5095064;28;20048;-69
2022/07/22 04:16:25;;;;;;;8.33;2.30;;;16.70;99.90;;;;;;5095010;28;20059;-67
2022/07/22 04:18:51;;;;;;;8.10;1.93;;;16.70;99.90;;;;;;5095275;28;20131;-68
2022/07/22 04:21:17;;;;;;;5.57;2.20;;;16.70;99.90;;;;;;5093817;28;20048;-68
2022/07/22 04:23:43;;;;;;;5.60;1.80;;;16.70;99.90;;;;;;5094200;28;20044;-68
2022/07/22 04:26:08;;;;;;;9.77;2.23;;;16.70;99.90;;;;;;5094875;28;20048;-67
2022/07/22 04:28:34;;;;;;;6.67;2.47;;;16.70;99.90;;;;;;5094710;28;20040;-67
2022/07/22 04:31:02;;;;;;;8.47;2.30;;;16.70;99.90;;;;;;5095249;28;20040;-68
2022/07/22 04:33:28;;;;;;;10.10;2.97;;;16.70;99.90;;;;;;5093764;28;20130;-67
2022/07/22 04:35:54;;;;;;;9.77;2.30;;;16.70;99.90;;;;;;5094679;28;20123;-67
2022/07/22 04:38:19;;;;;;;8.63;2.70;;;16.70;99.90;;;;;;5094610;28;20105;-68
2022/07/22 04:40:45;;;;;;;7.20;2.10;;;16.70;99.90;;;;;;5094631;28;20495;-67
2022/07/22 04:43:11;;;;;;;8.40;2.13;;;16.70;99.90;;;;;;5094794;28;20384;-67
2022/07/22 04:45:37;;;;;;;8.83;2.00;;;16.70;99.90;;;;;;5094791;28;20058;-67
2022/07/22 04:48:02;;;;;;;9.67;2.20;;;16.70;99.90;;;;;;5094317;28;20373;-69
2022/07/22 04:50:28;;;;;;;7.53;2.20;;;16.70;99.90;;;;;;5094380;28;20065;-68
2022/07/22 04:52:54;;;;;;;11.47;2.47;;;16.70;99.90;;;;;;5094415;28;20054;-68
2022/07/22 04:55:20;;;;;;;8.40;2.50;;;16.70;99.90;;;;;;5094237;28;20484;-68
2022/07/22 04:57:45;;;;;;;8.13;2.20;;;16.70;99.90;;;;;;5094257;28;20056;-67
2022/07/22 05:00:11;;;;;;;8.73;2.50;;;16.80;99.90;;;;;;5093252;28;20051;-68
2022/07/22 05:02:37;;;;;;;8.80;2.17;;;16.80;99.90;;;;;;5094129;28;20212;-67
2022/07/22 05:05:03;;;;;;;9.13;2.23;;;16.90;99.90;;;;;;5093783;28;20105;-67
2022/07/22 05:07:29;;;;;;;6.50;2.23;;;16.80;99.90;;;;;;5094092;28;20059;-68
2022/07/22 05:09:54;;;;;;;10.80;2.60;;;16.90;99.90;;;;;;5093370;28;20067;-67
2022/07/22 05:12:20;;;;;;;8.70;2.00;;;16.80;99.90;;;;;;5094531;28;20044;-68
2022/07/22 05:14:46;;;;;;;10.47;2.80;;;16.80;99.90;;;;;;5094497;28;20048;-67
2022/07/22 05:17:12;;;;;;;11.23;2.20;;;16.90;99.90;;;;;;5092901;28;20056;-68
2022/07/22 05:19:39;;;;;;;10.43;2.30;;;16.90;99.90;;;;;;5093877;28;20043;-67
2022/07/22 05:22:09;;;;;;;6.97;2.20;;;16.90;99.90;;;;;;5093883;28;20087;-68
2022/07/22 05:24:35;;;;;;;10.83;2.10;;;16.90;99.90;;;;;;5092556;28;20105;-68
2022/07/22 05:27:01;;;;;;;9.33;2.07;;;16.90;99.90;;;;;;5094036;28;20120;-68
2022/07/22 05:29:27;;;;;;;6.87;2.00;;;17.00;99.90;;;;;;5093638;28;20036;-68
2022/07/22 05:31:53;;;;;;;7.57;1.87;;;17.00;99.90;;;;;;5093320;28;20127;-67
2022/07/22 05:34:19;;;;;;;7.60;2.27;;;17.00;99.90;;;;;;5093621;28;20052;-68
2022/07/22 05:36:44;;;;;;;6.47;1.80;;;17.10;99.90;;;;;;5093624;28;20071;-68
2022/07/22 05:39:10;;;;;;;6.43;1.87;;;17.10;99.90;;;;;;5092632;28;20047;-68
2022/07/22 05:41:37;;;;;;;8.93;2.07;;;17.10;99.90;;;;;;5093856;28;20044;-68
2022/07/22 05:44:03;;;;;;;9.73;2.13;;;17.20;99.90;;;;;;5093844;28;20109;-68
2022/07/22 05:46:29;;;;;;;6.83;1.93;;;17.20;99.90;;;;;;5093527;28;20052;-67
2022/07/22 05:48:54;;;;;;;7.30;2.07;;;17.30;99.90;;;;;;5093444;28;20043;-68
2022/07/22 05:51:20;;;;;;;9.27;2.10;;;17.30;99.90;;;;;;5093517;28;20071;-68
2022/07/22 05:53:46;;;;;;;6.00;1.90;;;17.30;99.90;;;;;;5093776;28;20079;-68
2022/07/22 05:56:12;;;;;;;8.03;1.63;;;17.30;99.90;;;;;;5093444;28;20388;-68
2022/07/22 05:58:39;;;;;;;7.20;1.50;;;17.30;99.90;;;;;;5093634;28;20048;-68
2022/07/22 06:01:05;;;;;;;7.87;1.90;;;17.40;99.90;;;;;;5093405;28;20173;-68
2022/07/22 06:03:31;;;;;;;9.67;2.10;;;17.40;99.90;;;;;;5093402;28;20092;-68
2022/07/22 06:05:56;;;;;;;8.87;1.83;;;17.40;99.90;;;;;;5093083;28;20511;-68
2022/07/22 06:08:22;;;;;;;10.40;2.17;;;17.40;99.90;;;;;;5093272;28;20036;-68
2022/07/22 06:10:48;;;;;;;8.83;2.13;;;17.40;99.90;;;;;;5092282;28;20093;-68
2022/07/22 06:13:14;;;;;;;6.33;1.93;;;17.40;99.90;;;;;;5093318;28;20044;-68
2022/07/22 06:15:40;;;;;;;7.67;1.87;;;17.40;99.90;;;;;;5093334;28;20055;-68
2022/07/22 06:18:06;;;;;;;8.50;2.00;;;17.40;99.90;;;;;;5093476;28;20575;-68
2022/07/22 06:20:31;;;;;;;8.13;2.00;;;17.40;99.90;;;;;;5093194;28;20135;-68
2022/07/22 06:22:57;;;;;;;7.70;1.73;;;17.40;99.90;;;;;;5093250;28;20090;-68
2022/07/22 06:25:23;;;;;;;7.80;1.80;;;17.40;99.90;;;;;;5091975;28;20070;-68
2022/07/22 06:27:48;;;;;;;10.30;2.30;;;17.40;99.90;;;;;;5093172;28;20457;-68
2022/07/22 06:30:14;;;;;;;9.53;2.00;;;17.40;99.90;;;;;;5093159;28;20536;-70
2022/07/22 06:32:40;;;;;;;12.27;3.07;;;17.40;99.90;;;;;;5092879;28;20145;-68
2022/07/22 06:35:06;;;;;;;10.60;1.90;;;17.40;99.90;;;;;;5093360;28;20048;-68
2022/07/22 06:37:32;;;;;;;6.07;2.57;;;17.40;99.90;;;;;;5092986;28;20040;-68
2022/07/22 06:39:57;;;;;;;7.10;1.80;;;17.40;99.90;;;;;;5093104;28;20101;-68
2022/07/22 06:42:23;;;;;;;8.00;1.83;;;17.50;99.90;;;;;;5093076;28;20392;-68
2022/07/22 06:44:50;;;;;;;7.60;2.13;;;17.40;99.90;;;;;;5095019;28;20412;-68
2022/07/22 06:47:16;;;;;;;5.33;1.93;;;17.50;99.90;;;;;;5096761;28;20091;-68
2022/07/22 06:49:41;;;;;;;9.93;2.07;;;17.60;99.90;;;;;;5096659;28;20106;-68
2022/07/22 06:52:07;;;;;;;9.80;1.97;;;17.70;99.90;;;;;;5097510;28;20052;-68
2022/07/22 06:54:33;;;;;;;9.53;2.57;;;17.70;99.90;;;;;;5097106;28;20055;-68
2022/07/22 06:56:59;;;;;;;9.43;2.10;;;17.70;99.90;;;;;;5097168;28;20044;-68
2022/07/22 06:59:24;;;;;;;11.47;2.80;;;17.80;99.90;;;;;;5096535;28;20115;-68
2022/07/22 07:01:51;;;;;;;8.50;1.73;;;17.80;99.90;;;;;;5096565;28;20507;-68
2022/07/22 07:04:18;;;;;;;8.97;2.07;;;17.90;99.90;;;;;;5096143;28;20395;-68
2022/07/22 07:06:44;;;;;;;5.73;1.90;;;17.90;99.90;;;;;;5097187;28;20101;-68
2022/07/22 07:09:10;;;;;;;8.80;2.23;;;17.90;99.90;;;;;;5096305;28;20121;-68
2022/07/22 07:11:36;;;;;;;11.00;1.90;;;17.90;99.90;;;;;;5096374;28;20079;-68
2022/07/22 07:14:02;;;;;;;7.47;2.10;;;17.90;99.90;;;;;;5096259;28;20475;-69
2022/07/22 07:16:28;;;;;;;8.77;2.07;;;18.00;99.90;;;;;;5096136;28;20491;-68
2022/07/22 07:18:54;;;;;;;7.83;2.07;;;18.00;99.90;;;;;;5096406;28;20124;-68
2022/07/22 07:21:20;;;;;;;11.07;1.93;;;18.00;99.90;;;;;;5096366;28;20379;-68
2022/07/22 07:23:45;;;;;;;7.27;1.97;;;18.00;99.90;;;;;;5096912;28;20464;-69
2022/07/22 07:26:11;;;;;;;5.20;1.50;;;18.10;99.90;;;;;;5096038;28;20510;-68
2022/07/22 07:28:37;;;;;;;8.27;2.10;;;18.10;99.90;;;;;;5095694;28;20043;-68
2022/07/22 07:31:02;;;;;;;7.37;2.10;;;18.20;99.90;;;;;;5095951;28;20084;-68
2022/07/22 07:33:28;;;;;;;10.07;1.93;;;18.20;99.90;;;;;;5094584;28;20157;-68
2022/07/22 07:35:54;;;;;;;9.97;2.20;;;18.30;99.90;;;;;;5096272;28;20051;-68
2022/07/22 07:38:20;;;;;;;7.63;1.90;;;18.30;99.90;;;;;;5095809;28;20093;-68
2022/07/22 07:40:45;;;;;;;7.37;2.33;;;18.40;99.90;;;;;;5095708;28;20105;-68
2022/07/22 07:43:11;;;;;;;8.87;1.70;;;18.40;99.90;;;;;;5095655;28;20044;-68
2022/07/22 07:45:37;;;;;;;7.73;1.50;;;18.50;99.90;;;;;;5095223;28;20090;-68
2022/07/22 07:48:03;;;;;;;8.00;2.13;;;18.40;99.90;;;;;;5096374;28;20076;-68
2022/07/22 07:50:29;;;;;;;8.27;1.90;;;18.40;99.90;;;;;;5095527;28;20534;-69
2022/07/22 07:52:56;;;;;;;5.80;1.40;;;18.40;99.90;;;;;;5094359;28;20488;-68
2022/07/22 07:55:22;;;;;;;6.13;1.67;;;18.40;99.90;;;;;;5095745;28;20075;-68
2022/07/22 07:57:48;;;;;;;5.57;1.60;;;18.30;99.90;;;;;;5095429;28;20106;-68
2022/07/22 08:00:16;;;;;;;6.50;1.50;;;18.30;99.90;;;;;;5095399;28;20087;-68
2022/07/22 08:02:42;;;;;;;7.73;1.47;;;18.30;99.90;;;;;;5095335;28;20051;-68
2022/07/22 08:05:09;;;;;;;6.57;1.40;;;18.20;99.90;;;;;;5095275;28;20051;-68
2022/07/22 08:07:34;;;;;;;4.27;1.30;;;18.20;99.90;;;;;;5094240;28;20047;-69
2022/07/22 08:10:00;;;;;;;7.30;1.80;;;18.20;99.90;;;;;;5093858;28;20040;-68
2022/07/22 08:12:26;;;;;;;7.37;1.40;;;18.10;99.90;;;;;;5095078;28;20127;-69
2022/07/22 08:14:52;;;;;;;5.03;1.50;;;18.20;99.90;;;;;;5095347;28;20411;-68
2022/07/22 08:17:18;;;;;;;4.67;1.43;;;18.20;99.90;;;;;;5093785;28;20052;-68
2022/07/22 08:19:43;;;;;;;9.60;1.47;;;18.20;99.90;;;;;;5095565;28;20040;-68
2022/07/22 08:22:09;;;;;;;8.17;1.47;;;18.20;99.90;;;;;;5093999;28;20048;-68
2022/07/22 08:24:35;;;;;;;5.83;1.77;;;18.30;99.90;;;;;;5094875;28;20043;-69
2022/07/22 08:27:01;;;;;;;7.87;1.73;;;18.30;99.90;;;;;;5077614;28;20055;-68
2022/07/22 08:29:27;;;;;;;5.33;1.30;;;18.40;99.90;;;;;;5094582;28;20547;-68
2022/07/22 08:31:53;;;;;;;3.63;1.03;;;18.40;99.90;;;;;;5095034;28;20131;-68
2022/07/22 08:34:19;;;;;;;6.57;1.33;;;18.40;99.90;;;;;;5094743;28;20149;-68
2022/07/22 08:36:45;;;;;;;4.67;1.20;;;18.50;99.90;;;;;;5095454;28;20083;-68
2022/07/22 08:39:10;;;;;;;4.50;1.23;;;18.60;99.90;;;;;;5094627;28;20037;-67
2022/07/22 08:41:38;;;;;;;7.90;1.30;;;18.70;99.90;;;;;;5094580;28;20055;-68
2022/07/22 08:44:06;;;;;;;4.00;1.07;;;18.80;99.90;;;;;;5094297;28;20044;-68
2022/07/22 08:46:31;;;;;;;5.90;1.40;;;18.90;99.90;;;;;;5094465;28;20054;-68
2022/07/22 08:49:00;;;;;;;3.47;1.10;;;19.00;99.90;;;;;;5094345;28;20040;-68
2022/07/22 08:51:27;;;;;;;4.23;1.40;;;19.00;99.90;;;;;;5094787;28;20123;-68
2022/07/22 08:53:52;;;;;;;7.07;1.30;;;19.10;99.90;;;;;;5095078;28;20067;-68
2022/07/22 08:56:18;;;;;;;4.33;1.17;;;19.10;99.90;;;;;;5094307;28;20048;-68
2022/07/22 08:58:44;;;;;;;5.90;1.43;;;19.10;99.90;;;;;;5094577;28;20573;-68
2022/07/22 09:01:15;;;;;;;3.47;1.23;;;19.10;99.90;;;;;;5093226;28;20075;-69
2022/07/22 09:03:55;;;;;;;3.73;1.00;;;19.00;99.90;;;;;;5094113;28;20430;-69
2022/07/22 09:06:23;;;;;;;4.27;1.20;;;18.90;99.90;;;;;;5093702;28;20457;-69
2022/07/22 09:09:02;;;;;;;4.83;0.97;;;18.80;99.90;;;;;;5093908;28;20044;-69
2022/07/22 09:11:29;;;;;;;3.63;1.00;;;18.80;99.90;;;;;;5094206;28;20492;-69
2022/07/22 09:13:56;;;;;;;3.23;1.13;;;18.80;99.90;;;;;;5094582;28;20052;-70
2022/07/22 09:16:41;;;;;;;3.60;1.10;;;18.80;99.90;;;;;;5094208;28;20044;-68
2022/07/22 09:19:07;;;;;;;6.20;1.13;;;18.80;99.90;;;;;;5094843;28;20090;-74
2022/07/22 09:21:36;;;;;;;5.17;1.30;;;18.80;99.90;;;;;;5093944;28;20044;-76
2022/07/22 09:24:06;;;;;;;2.93;1.07;;;18.80;99.90;;;;;;5093746;28;20036;-77
2022/07/22 09:26:37;;;;;;;4.33;1.60;;;18.80;99.90;;;;;;5094755;28;20485;-76
2022/07/22 09:29:04;;;;;;;3.43;1.20;;;18.80;99.90;;;;;;5092962;28;20055;-77
2022/07/22 09:31:34;;;;;;;8.33;1.40;;;18.80;99.90;;;;;;5091932;28;20043;-76
2022/07/22 09:34:01;;;;;;;4.70;1.23;;;18.80;99.90;;;;;;5092532;28;20479;-76
2022/07/22 09:36:27;;;;;;;4.83;1.10;;;18.80;99.90;;;;;;5092941;28;20084;-77
2022/07/22 09:38:53;;;;;;;6.20;1.20;;;18.90;99.90;;;;;;5092844;28;20036;-77
2022/07/22 09:41:19;;;;;;;5.17;1.30;;;19.00;99.90;;;;;;5092973;28;20121;-76
2022/07/22 09:43:45;;;;;;;6.23;1.33;;;19.00;99.90;;;;;;5092998;28;20361;-76
2022/07/22 09:46:11;;;;;;;6.67;1.30;;;19.10;99.90;;;;;;5093575;28;20055;-76
2022/07/22 09:48:38;;;;;;;7.23;1.50;;;19.20;99.90;;;;;;5093532;28;20036;-77
2022/07/22 09:51:04;;;;;;;2.90;1.20;;;19.20;99.90;;;;;;5093621;28;20430;-70
2022/07/22 09:53:31;;;;;;;4.57;1.40;;;19.20;99.90;;;;;;5093551;28;20066;-68
2022/07/22 09:55:58;;;;;;;5.60;1.20;;;19.30;99.90;;;;;;5093536;28;20464;-68
2022/07/22 09:58:25;;;;;;;5.50;1.40;;;19.40;99.90;;;;;;5093225;28;20036;-68
2022/07/22 10:00:52;;;;;;;4.67;1.50;;;19.40;99.90;;;;;;5093469;28;20098;-68
2022/07/22 10:03:26;;;;;;;5.03;1.30;;;19.50;99.90;;;;;;5093468;28;20060;-69
2022/07/22 10:05:53;;;;;;;4.80;1.40;;;19.60;99.90;;;;;;5094259;28;20109;-69
2022/07/22 10:08:19;;;;;;;3.70;1.10;;;19.70;99.90;;;;;;5093610;28;20125;-72
2022/07/22 10:10:45;;;;;;;9.07;1.50;;;19.80;99.90;;;;;;5093386;28;20044;-72
2022/07/22 10:13:11;;;;;;;3.67;1.00;;;19.90;99.90;;;;;;5093363;28;20052;-72
2022/07/22 10:15:38;;;;;;;4.60;1.03;;;19.90;99.90;;;;;;5093297;28;20055;-73
2022/07/22 10:18:07;;;;;;;3.97;1.27;;;19.90;99.90;;;;;;5094208;28;20055;-67
2022/07/22 10:20:33;;;;;;;3.10;1.00;;;19.90;99.90;;;;;;5097156;28;20094;-69
2022/07/22 10:23:05;;;;;;;3.13;1.17;;;20.00;99.90;;;;;;5097319;28;20055;-70
2022/07/22 10:25:47;;;;;;;3.60;1.10;;;20.10;99.90;;;;;;5096341;28;20052;-72
2022/07/22 10:28:30;;;;;;;3.97;1.30;;;20.20;99.90;;;;;;5097428;28;20127;-70
2022/07/22 10:31:18;;;;;;;2.73;0.90;;;20.30;99.90;;;;;;5097702;28;20047;-70
2022/07/22 10:33:49;;;;;;;3.70;1.10;;;20.50;99.90;;;;;;5097069;28;20476;-70
2022/07/22 10:36:36;;;;;;;3.27;1.30;;;20.50;99.90;;;;;;5097374;28;20161;-71
2022/07/22 10:39:06;;;;;;;5.20;1.20;;;20.60;99.90;;;;;;5096621;28;20543;-69
2022/07/22 10:41:42;;;;;;;3.23;1.10;;;20.60;99.90;;;;;;5097693;28;20047;-68
2022/07/22 10:44:10;;;;;;;3.40;1.07;;;20.60;99.90;;;;;;5096822;28;20502;-73
2022/07/22 10:46:52;;;;;;;3.73;1.10;;;20.60;99.90;;;;;;5096887;28;20089;-72
2022/07/22 10:49:26;;;;;;;4.03;0.93;;;20.60;99.90;;;;;;5097036;28;20048;-73
2022/07/22 10:52:07;;;;;;;3.22;1.10;;;20.50;99.90;;;;;;5096791;28;20044;-70
2022/07/22 10:54:33;;;;;;;2.50;1.00;;;20.40;99.90;;;;;;5096693;28;20092;-69
2022/07/22 10:57:02;;;;;;;1.83;0.77;;;20.40;99.90;;;;;;5096619;28;20075;-69
2022/07/22 10:59:28;;;;;;;3.67;1.47;;;20.40;99.90;;;;;;5097374;28;20165;-69
2022/07/22 11:01:54;;;;;;;3.60;1.10;;;20.40;99.90;;;;;;5096307;28;20468;-69
2022/07/22 11:04:26;;;;;;;4.87;1.27;;;20.30;99.90;;;;;;5096993;28;20043;-69
2022/07/22 11:06:54;;;;;;;6.80;1.93;;;20.20;99.90;;;;;;5096459;28;20079;-70
2022/07/22 11:09:23;;;;;;;5.00;1.20;;;20.10;99.90;;;;;;5096271;28;20048;-68
2022/07/22 11:11:52;;;;;;;3.30;0.90;;;19.90;99.90;;;;;;5096341;28;20048;-71
2022/07/22 11:14:19;;;;;;;2.70;0.90;;;19.90;99.90;;;;;;5096261;28;20048;-71
2022/07/22 11:16:47;;;;;;;4.73;1.20;;;19.80;99.90;;;;;;5096253;28;20056;-73
2022/07/22 11:19:13;;;;;;;3.30;1.10;;;19.80;99.90;;;;;;5096936;28;20043;-73
2022/07/22 11:21:39;;;;;;;5.30;1.20;;;19.80;99.90;;;;;;5096104;28;20048;-69
2022/07/22 11:24:07;;;;;;;3.97;0.90;;;19.80;99.90;;;;;;5096098;28;20055;-70
2022/07/22 11:26:41;;;;;;;2.37;1.00;;;19.90;99.90;;;;;;5096558;28;20043;-70
2022/07/22 11:29:09;;;;;;;3.73;1.20;;;19.90;99.90;;;;;;5095853;28;20127;-70
2022/07/22 11:31:36;;;;;;;4.77;1.20;;;19.90;99.90;;;;;;5094254;28;20044;-75
2022/07/22 11:34:08;;;;;;;3.70;1.13;;;19.90;99.90;;;;;;5094826;28;20052;-76
2022/07/22 11:36:36;;;;;;;2.80;0.90;;;20.00;99.90;;;;;;5096578;28;20067;-75
2022/07/22 11:39:03;;;;;;;4.13;1.00;;;20.00;99.90;;;;;;5095758;28;20051;-75
2022/07/22 11:41:30;;;;;;;3.97;1.00;;;20.00;99.90;;;;;;5095686;28;20086;-75
2022/07/22 11:43:58;;;;;;;3.87;1.00;;;20.10;99.90;;;;;;5095290;28;20048;-75
2022/07/22 11:46:25;;;;;;;4.37;1.07;;;20.10;99.90;;;;;;5096469;28;20048;-75
2022/07/22 11:48:56;;;;;;;1.63;0.93;;;20.20;99.90;;;;;;5095527;28;20044;-76
2022/07/22 11:51:29;;;;;;;3.17;1.10;;;20.20;99.90;;;;;;5095758;28;20059;-76
2022/07/22 11:53:55;;;;;;;3.60;1.03;;;20.30;99.90;;;;;;5095497;28;20133;-76
2022/07/22 11:56:21;;;;;;;4.83;1.30;;;20.40;99.90;;;;;;5095512;28;20044;-76
2022/07/22 11:58:55;;;;;;;5.97;1.03;;;20.50;99.90;;;;;;5096203;28;20039;-78
2022/07/22 12:01:24;;;;;;;4.40;1.40;;;20.60;99.90;;;;;;5096149;28;20414;-77
2022/07/22 12:03:52;;;;;;;1.90;0.90;;;20.70;99.90;;;;;;5095224;28;20048;-72
2022/07/22 12:06:20;;;;;;;3.20;1.10;;;20.90;97.20;;;;;;5094975;28;20052;-70
2022/07/22 12:08:49;;;;;;;4.70;1.10;;;20.90;98.30;;;;;;5095090;28;20084;-69
2022/07/22 12:11:16;;;;;;;2.63;1.00;;;21.00;97.90;;;;;;5095098;28;20051;-70
2022/07/22 12:13:44;;;;;;;2.20;1.50;;;21.00;94.70;;;;;;5095081;28;20381;-72
2022/07/22 12:16:18;;;;;;;3.60;1.00;;;21.10;96.90;;;;;;5095281;28;20173;-75
2022/07/22 12:18:49;;;;;;;3.17;1.27;;;21.00;95.10;;;;;;5095014;28;20040;-74
2022/07/22 12:21:16;;;;;;;4.13;1.17;;;21.00;97.00;;;;;;5095330;28;20040;-75
2022/07/22 12:23:56;;;;;;;4.73;1.10;;;20.90;96.30;;;;;;5095375;28;20059;-77
2022/07/22 12:26:40;;;;;;;3.43;1.13;;;20.90;96.10;;;;;;5094911;28;20040;-76
2022/07/22 12:29:32;;;;;;;2.60;1.13;;;20.90;95.80;;;;;;5095254;28;20463;-75
2022/07/22 12:32:00;;;;;;;8.00;1.37;;;20.90;97.40;;;;;;5077461;28;20446;-74
2022/07/22 12:34:46;;;;;;;2.73;1.00;;;20.80;96.90;;;;;;5094807;28;20048;-68
2022/07/22 12:37:19;;;;;;;4.17;1.20;;;20.70;94.70;;;;;;5094674;28;20048;-70
2022/07/22 12:40:04;;;;;;;7.77;1.30;;;20.70;98.00;;;;;;5094361;28;20495;-70
2022/07/22 12:42:42;;;;;;;2.83;1.10;;;20.70;98.30;;;;;;5094184;28;20391;-70
2022/07/22 12:45:15;;;;;;;3.03;1.00;;;20.80;98.00;;;;;;5094885;28;20070;-70